Time;durP1;ratioP1;P1;durP2;ratioP2;P2;SDS_P1;SDS_P2;PMS_P1;PMS_P2;Temp;Humidity;BMP_temperature;BMP_pressure;BME280_temperature;BME280_humidity;BME280_pressure;Samples;Min_cycle;Max_cycle;Signal;HPM_P1;HPM_P2
2023/01/13 00:01:46;;;;;;;15.80;4.80;;;;;;;-4.32;100.00;101412.10;104927;1260;74141;-58
2023/01/13 00:04:13;;;;;;;19.30;5.50;;;;;;;-4.31;100.00;101412.23;105063;1257;61663;-58
2023/01/13 00:06:41;;;;;;;18.70;6.40;;;;;;;-4.30;100.00;101411.68;105214;1257;62495;-58
2023/01/13 00:09:08;;;;;;;23.90;5.70;;;;;;;-4.30;100.00;101411.34;104793;1258;76069;-59
2023/01/13 00:11:35;;;;;;;21.50;5.60;;;;;;;-4.31;100.00;101411.39;105430;1262;68531;-59
2023/01/13 00:14:02;;;;;;;17.70;6.50;;;;;;;-4.34;100.00;101409.44;105073;1264;74170;-59
2023/01/13 00:16:29;;;;;;;16.90;5.00;;;;;;;-4.35;100.00;101405.59;105116;1262;62321;-59
2023/01/13 00:18:57;;;;;;;17.00;6.00;;;;;;;-4.32;100.00;101408.36;105355;1262;60499;-60
2023/01/13 00:21:24;;;;;;;19.00;4.90;;;;;;;-4.37;100.00;101408.73;104934;1269;74354;-59
2023/01/13 00:23:52;;;;;;;14.90;4.60;;;;;;;-4.37;100.00;101410.60;105191;1257;69239;-59
2023/01/13 00:26:22;;;;;;;15.90;5.60;;;;;;;-4.36;100.00;101412.41;105038;1260;74873;-60
2023/01/13 00:28:49;;;;;;;15.90;5.30;;;;;;;-4.38;100.00;101410.80;105092;1260;61645;-60
2023/01/13 00:31:18;;;;;;;19.20;5.60;;;;;;;-4.39;100.00;101403.18;105267;1258;62167;-59
2023/01/13 00:33:47;;;;;;;21.10;5.00;;;;;;;-4.41;100.00;101406.16;105082;1261;76388;-59
2023/01/13 00:36:14;;;;;;;16.00;4.90;;;;;;;-4.44;100.00;101401.04;105132;1260;70031;-59
2023/01/13 00:38:42;;;;;;;16.60;7.20;;;;;;;-4.46;100.00;101390.23;105161;1257;74837;-59
2023/01/13 00:41:11;;;;;;;19.80;6.20;;;;;;;-4.45;100.00;101390.22;104843;1261;61327;-61
2023/01/13 00:43:38;;;;;;;17.20;5.70;;;;;;;-4.47;100.00;101388.24;105185;1256;62450;-59
2023/01/13 00:46:06;;;;;;;11.90;4.30;;;;;;;-4.50;100.00;101384.80;105128;1257;75995;-57
2023/01/13 00:48:34;;;;;;;13.50;4.50;;;;;;;-4.47;100.00;101388.58;105391;1259;69575;-59
2023/01/13 00:51:06;;;;;;;19.70;6.50;;;;;;;-4.48;100.00;101385.38;105550;1259;74906;-61
2023/01/13 00:53:35;;;;;;;23.90;5.20;;;;;;;-4.49;100.00;101383.38;105564;1259;61697;-59
2023/01/13 00:56:08;;;;;;;17.20;5.30;;;;;;;-4.49;100.00;101387.48;105512;1260;62921;-59
2023/01/13 00:58:35;;;;;;;18.60;4.70;;;;;;;-4.51;100.00;101387.70;105458;1257;74624;-60
2023/01/13 01:01:06;;;;;;;14.20;4.90;;;;;;;-4.48;100.00;101387.45;105576;1257;67640;-60
2023/01/13 01:03:33;;;;;;;17.50;5.50;;;;;;;-4.49;100.00;101389.84;105421;1261;74509;-59
2023/01/13 01:06:12;;;;;;;17.80;4.80;;;;;;;-4.46;100.00;101386.00;105453;1269;63726;-59
2023/01/13 01:08:39;;;;;;;24.20;5.90;;;;;;;-4.48;100.00;101386.06;105678;1261;61683;-59
2023/01/13 01:11:11;;;;;;;13.90;4.80;;;;;;;-4.48;100.00;101379.95;105286;1257;74318;-59
2023/01/13 01:13:38;;;;;;;14.80;4.80;;;;;;;-4.46;100.00;101378.03;105435;1261;68358;-60
2023/01/13 01:16:07;;;;;;;16.50;6.70;;;;;;;-4.44;100.00;101382.19;105384;1259;74081;-59
2023/01/13 01:18:35;;;;;;;17.70;5.10;;;;;;;-4.47;100.00;101376.86;105605;1260;63725;-60
2023/01/13 01:21:02;;;;;;;12.50;4.80;;;;;;;-4.44;100.00;101383.36;105556;1260;62854;-58
2023/01/13 01:23:30;;;;;;;17.80;5.20;;;;;;;-4.46;100.00;101377.01;105609;1260;75082;-59
2023/01/13 01:26:11;;;;;;;15.10;4.60;;;;;;;-4.46;100.00;101376.14;105701;1260;67444;-61
2023/01/13 01:28:38;;;;;;;20.00;6.60;;;;;;;-4.44;100.00;101377.45;105072;1265;75320;-60
2023/01/13 01:31:11;;;;;;;19.70;6.50;;;;;;;-4.43;100.00;101377.73;105103;1260;62113;-61
2023/01/13 01:33:40;;;;;;;24.90;6.10;;;;;;;-4.42;100.00;101383.64;105141;1260;62638;-61
2023/01/13 01:36:08;;;;;;;14.70;4.90;;;;;;;-4.41;100.00;101383.24;105379;1260;75953;-62
2023/01/13 01:38:35;;;;;;;12.10;4.80;;;;;;;-4.19;100.00;101382.56;105299;1262;69805;-60
2023/01/13 01:41:02;;;;;;;17.40;4.90;;;;;;;-4.06;100.00;101383.27;104856;1263;73753;-59
2023/01/13 01:43:58;;;;;;;12.80;4.50;;;;;;;-4.18;100.00;101385.91;105036;1262;62430;-58
2023/01/13 01:46:35;;;;;;;15.70;5.30;;;;;;;-4.23;100.00;101377.11;105293;1261;61533;-61
2023/01/13 01:49:38;;;;;;;14.70;6.30;;;;;;;-4.22;100.00;101376.25;105360;1260;75992;-59
2023/01/13 01:52:14;;;;;;;22.90;6.00;;;;;;;-4.14;100.00;101367.27;105084;1260;69691;-59
2023/01/13 01:54:46;;;;;;;13.80;5.10;;;;;;;-4.26;100.00;101366.89;105093;1263;74860;-60
2023/01/13 01:57:17;;;;;;;17.20;5.30;;;;;;;-4.23;100.00;101361.84;105215;1258;62513;-60
2023/01/13 01:59:45;;;;;;;15.30;5.70;;;;;;;-4.22;100.00;101358.07;105001;1257;60532;-59
2023/01/13 02:02:12;;;;;;;17.70;5.30;;;;;;;-4.24;100.00;101363.27;105124;1257;75295;-59
2023/01/13 02:04:40;;;;;;;26.00;5.70;;;;;;;-4.24;100.00;101363.23;105035;1260;68439;-58
2023/01/13 02:07:07;;;;;;;12.50;5.80;;;;;;;-4.23;100.00;101365.42;104791;1257;74813;-58
2023/01/13 02:09:34;;;;;;;18.20;4.90;;;;;;;-4.23;100.00;101370.14;104744;1257;64391;-60
2023/01/13 02:14:47;;;;;;;12.00;5.20;;;;;;;-4.21;100.00;101357.01;104897;1257;75789;-57
2023/01/13 02:17:24;;;;;;;15.30;5.50;;;;;;;-4.22;100.00;101356.02;104792;1263;67883;-58
2023/01/13 02:20:13;;;;;;;20.60;5.90;;;;;;;-4.23;100.00;101355.38;104917;1261;75567;-58
2023/01/13 02:24:52;;;;;;;14.90;5.60;;;;;;;-4.23;100.00;101359.11;105216;1260;62373;-60
2023/01/13 02:26:20;;;;;;;22.70;6.60;;;;;;;-4.20;100.00;101355.45;105131;1257;60738;-61
2023/01/13 02:32:13;;;;;;;17.60;5.90;;;;;;;-4.20;100.00;101353.77;105050;1266;67457;-60
2023/01/13 02:35:21;;;;;;;18.10;5.30;;;;;;;-4.21;100.00;101357.69;104977;1264;74088;-60
2023/01/13 02:37:49;;;;;;;25.70;6.30;;;;;;;-4.23;100.00;101359.46;104766;1268;61708;-60
2023/01/13 02:40:22;;;;;;;15.10;5.30;;;;;;;-4.22;100.00;101365.20;105281;1262;61929;-61
2023/01/13 02:46:14;;;;;;;13.90;5.50;;;;;;;-4.19;100.00;101357.60;104846;1258;68993;-60
2023/01/13 02:48:42;;;;;;;21.20;5.50;;;;;;;-4.16;100.00;101351.05;105060;1270;74977;-60
2023/01/13 02:51:12;;;;;;;20.30;6.70;;;;;;;-4.14;100.00;101349.27;105084;1261;62697;-60
2023/01/13 02:53:42;;;;;;;21.70;6.30;;;;;;;-4.13;100.00;101346.01;105106;1260;61806;-61
2023/01/13 02:56:09;;;;;;;19.10;5.30;;;;;;;-4.12;100.00;101341.56;105385;1257;74897;-61
2023/01/13 02:58:37;;;;;;;22.40;6.30;;;;;;;-4.12;100.00;101346.31;104979;1264;68250;-59
2023/01/13 03:01:04;;;;;;;15.50;6.10;;;;;;;-4.13;100.00;101346.15;105099;1260;74147;-59
2023/01/13 03:03:31;;;;;;;21.60;6.20;;;;;;;-4.11;100.00;101338.48;105121;1258;62723;-60
2023/01/13 03:06:25;;;;;;;24.50;6.80;;;;;;;-4.10;100.00;101338.23;104917;1259;61428;-62
2023/01/13 03:09:02;;;;;;;13.70;6.00;;;;;;;-4.08;100.00;101337.16;105118;1263;76371;-59
2023/01/13 03:11:34;;;;;;;22.20;6.40;;;;;;;-4.07;100.00;101332.00;104930;1261;68308;-61
2023/01/13 03:14:20;;;;;;;15.50;6.20;;;;;;;-4.06;100.00;101325.50;105049;1261;74857;-59
2023/01/13 03:16:58;;;;;;;16.80;6.50;;;;;;;-4.06;100.00;101324.31;104887;1258;62687;-60
2023/01/13 03:19:34;;;;;;;18.60;6.60;;;;;;;-4.05;100.00;101329.70;105079;1258;61698;-59
2023/01/13 03:22:21;;;;;;;20.20;5.90;;;;;;;-4.03;100.00;101334.74;105254;1261;75192;-58
2023/01/13 03:25:16;;;;;;;17.00;6.80;;;;;;;-4.01;100.00;101333.30;104944;1259;69871;-59
2023/01/13 03:27:54;;;;;;;18.80;6.40;;;;;;;-4.02;100.00;101332.98;105216;1257;74169;-60
2023/01/13 03:30:32;;;;;;;14.60;6.20;;;;;;;-4.01;100.00;101330.09;105151;1260;63802;-59
2023/01/13 03:33:17;;;;;;;18.50;7.00;;;;;;;-4.00;100.00;101332.94;105179;1257;61635;-59
2023/01/13 03:35:46;;;;;;;17.80;6.10;;;;;;;-4.01;100.00;101334.51;105085;1263;76528;-58
2023/01/13 03:38:38;;;;;;;19.80;6.10;;;;;;;-4.00;100.00;101337.00;105198;1260;68591;-58
2023/01/13 03:41:06;;;;;;;;;;;;;;;-3.99;100.00;101338.45;105165;1269;74730;-60
2023/01/13 03:46:28;;;;;;;16.10;5.90;;;;;;;-3.98;100.00;101333.51;105122;1257;62611;-57
2023/01/13 03:48:56;;;;;;;20.50;6.50;;;;;;;-3.91;100.00;101328.77;105088;1258;75277;-58
2023/01/13 03:51:24;;;;;;;21.30;5.90;;;;;;;-3.95;100.00;101328.59;105051;1257;69526;-61
2023/01/13 03:53:54;;;;;;;16.90;5.60;;;;;;;-3.95;100.00;101326.61;105200;1261;75094;-59
2023/01/13 03:56:26;;;;;;;18.00;6.10;;;;;;;-3.95;100.00;101331.33;105154;1258;61180;-60
2023/01/13 03:58:53;;;;;;;18.30;6.00;;;;;;;-3.94;100.00;101331.97;105051;1257;62830;-60
2023/01/13 04:01:24;;;;;;;16.30;5.80;;;;;;;-3.93;100.00;101328.71;105082;1261;76041;-58
2023/01/13 04:04:00;;;;;;;11.00;5.70;;;;;;;-3.94;100.00;101326.89;105212;1258;69313;-58
2023/01/13 04:06:46;;;;;;;12.90;4.90;;;;;;;-3.95;100.00;101332.34;104910;1264;73771;-59
2023/01/13 04:09:33;;;;;;;14.50;5.80;;;;;;;-3.94;100.00;101329.09;105173;1257;62646;-60
2023/01/13 04:12:07;;;;;;;14.60;7.00;;;;;;;-3.92;100.00;101330.02;105193;1260;61756;-59
2023/01/13 04:14:34;;;;;;;14.70;6.30;;;;;;;-3.88;100.00;101330.72;105123;1257;75179;-59
2023/01/13 04:17:01;;;;;;;17.60;5.90;;;;;;;-3.89;100.00;101332.10;105012;1262;68502;-59
2023/01/13 04:19:30;;;;;;;13.40;5.60;;;;;;;-3.88;100.00;101333.27;105465;1256;75418;-62
2023/01/13 04:21:57;;;;;;;16.40;6.80;;;;;;;-3.89;100.00;101338.56;105105;1259;62590;-59
2023/01/13 04:24:24;;;;;;;14.20;5.70;;;;;;;-3.89;100.00;101345.04;105163;1257;61449;-59
2023/01/13 04:26:51;;;;;;;15.20;5.30;;;;;;;-3.89;100.00;101340.27;105228;1257;74918;-58
2023/01/13 04:29:19;;;;;;;12.20;5.40;;;;;;;-3.90;100.00;101341.49;105079;1260;68325;-60
2023/01/13 04:31:46;;;;;;;12.90;5.40;;;;;;;-3.88;100.00;101342.77;104857;1257;75104;-58
2023/01/13 04:34:13;;;;;;;14.20;6.10;;;;;;;-3.88;100.00;101345.00;105267;1256;60737;-60
2023/01/13 04:36:40;;;;;;;16.20;6.10;;;;;;;-3.88;100.00;101348.19;105175;1259;62507;-58
2023/01/13 04:39:07;;;;;;;14.20;5.10;;;;;;;-3.86;100.00;101351.88;105112;1257;75937;-58
2023/01/13 04:44:21;;;;;;;15.50;6.20;;;;;;;-3.86;100.00;101354.40;105194;1258;75134;-59
2023/01/13 04:46:48;;;;;;;23.50;5.70;;;;;;;-3.84;100.00;101360.11;104996;1258;62194;-59
2023/01/13 04:49:15;;;;;;;15.20;7.50;;;;;;;-3.84;100.00;101365.52;105023;1260;61664;-59
2023/01/13 04:51:42;;;;;;;13.40;5.40;;;;;;;-3.84;100.00;101368.23;105317;1260;74996;-60
2023/01/13 04:54:10;;;;;;;12.10;6.30;;;;;;;-3.83;100.00;101368.36;104829;1257;69275;-60
2023/01/13 04:56:37;;;;;;;13.30;6.00;;;;;;;-3.83;100.00;101368.70;105024;1257;74109;-58
2023/01/13 04:59:04;;;;;;;14.40;5.40;;;;;;;-3.83;100.00;101369.55;105103;1257;62503;-60
2023/01/13 05:01:31;;;;;;;12.90;5.10;;;;;;;-3.83;100.00;101369.58;105107;1261;61781;-58
2023/01/13 05:03:58;;;;;;;14.00;6.10;;;;;;;-3.83;100.00;101370.41;105340;1256;75010;-60
2023/01/13 05:06:26;;;;;;;11.90;5.00;;;;;;;-3.83;100.00;101367.52;105153;1257;69475;-58
2023/01/13 05:08:53;;;;;;;16.90;5.40;;;;;;;-3.84;100.00;101369.23;105137;1261;73814;-59
2023/01/13 05:16:59;;;;;;;11.80;5.00;;;;;;;-3.87;100.00;101377.02;105155;1257;74181;-59
2023/01/13 05:19:30;;;;;;;16.20;5.20;;;;;;;-3.86;100.00;101375.61;105048;1257;69441;-59
2023/01/13 05:27:29;;;;;;;14.00;4.50;;;;;;;-3.88;100.00;101373.17;104888;1257;61543;-60
2023/01/13 05:29:56;;;;;;;13.00;5.40;;;;;;;-3.87;100.00;101374.85;105205;1257;76314;-60
2023/01/13 05:32:24;;;;;;;21.40;6.30;;;;;;;-3.88;100.00;101375.86;105345;1256;68520;-61
2023/01/13 05:34:51;;;;;;;10.10;5.30;;;;;;;-3.87;100.00;101376.36;105346;1261;74945;-60
2023/01/13 05:37:18;;;;;;;14.40;5.20;;;;;;;-3.87;100.00;101372.78;104879;1260;62690;-59
2023/01/13 05:45:17;;;;;;;9.90;5.40;;;;;;;-3.83;100.00;101371.75;105071;1257;68757;-59
2023/01/13 05:47:44;;;;;;;14.50;4.90;;;;;;;-3.81;100.00;101365.06;105036;1261;75020;-59
2023/01/13 05:50:11;;;;;;;14.60;5.50;;;;;;;-3.80;100.00;101370.95;105328;1259;61963;-61
2023/01/13 05:52:38;;;;;;;14.50;4.70;;;;;;;-3.80;100.00;101367.73;104839;1257;61655;-61
2023/01/13 05:55:06;;;;;;;11.80;4.70;;;;;;;-3.80;100.00;101371.45;105104;1256;75127;-60
2023/01/13 05:57:33;;;;;;;21.00;5.90;;;;;;;-3.78;100.00;101371.56;105371;1257;69442;-59
2023/01/13 06:00:01;;;;;;;17.10;6.30;;;;;;;-3.77;100.00;101370.65;105338;1260;74119;-59
2023/01/13 06:02:37;;;;;;;13.40;5.20;;;;;;;-3.75;100.00;101375.69;105607;1257;63925;-61
2023/01/13 06:05:04;;;;;;;17.30;6.20;;;;;;;-3.75;100.00;101370.75;105101;1260;61085;-59
2023/01/13 06:07:31;;;;;;;13.70;4.90;;;;;;;-3.76;100.00;101374.85;105412;1257;75576;-59
2023/01/13 06:09:58;;;;;;;11.60;4.50;;;;;;;-3.77;100.00;101372.52;105492;1260;68238;-61
2023/01/13 06:12:25;;;;;;;9.50;4.60;;;;;;;-3.75;100.00;101373.14;105643;1260;74911;-61
2023/01/13 06:14:53;;;;;;;9.70;4.60;;;;;;;-3.75;100.00;101370.25;105029;1260;62562;-61
2023/01/13 06:17:20;;;;;;;15.10;5.30;;;;;;;-3.75;100.00;101376.38;105298;1257;61578;-59
2023/01/13 06:19:47;;;;;;;9.60;4.50;;;;;;;-3.78;100.00;101374.62;105143;1256;75584;-60
2023/01/13 06:22:20;;;;;;;19.90;6.30;;;;;;;-3.76;100.00;101372.48;105468;1259;68780;-60
2023/01/13 06:24:52;;;;;;;8.80;4.50;;;;;;;-3.74;100.00;101375.80;105417;1261;75245;-62
2023/01/13 06:27:20;;;;;;;10.80;5.20;;;;;;;-3.74;100.00;101373.27;105531;1260;62226;-61
2023/01/13 06:29:47;;;;;;;15.60;5.10;;;;;;;-3.74;100.00;101371.04;105518;1256;61637;-61
2023/01/13 06:32:16;;;;;;;21.60;6.00;;;;;;;-3.72;100.00;101372.00;105315;1260;75292;-61
2023/01/13 06:34:46;;;;;;;16.40;5.10;;;;;;;-3.70;100.00;101375.98;105598;1260;69973;-59
2023/01/13 06:37:13;;;;;;;12.90;5.10;;;;;;;-3.68;100.00;101372.64;105444;1260;74036;-60
2023/01/13 06:39:41;;;;;;;14.70;5.40;;;;;;;-3.63;100.00;101374.70;105336;1260;60957;-60
2023/01/13 06:44:53;;;;;;;14.50;4.70;;;;;;;-3.61;100.00;101373.06;105115;1262;76302;-61
2023/01/13 06:47:21;;;;;;;13.00;4.70;;;;;;;-3.60;100.00;101367.42;105183;1258;69997;-59
2023/01/13 06:49:48;;;;;;;12.90;5.90;;;;;;;-3.60;100.00;101365.20;104953;1263;73226;-59
2023/01/13 06:52:15;;;;;;;15.10;5.80;;;;;;;-3.57;100.00;101362.88;105326;1260;62345;-59
2023/01/13 06:54:42;;;;;;;15.20;5.00;;;;;;;-3.53;100.00;101367.13;105302;1257;63126;-59
2023/01/13 06:57:09;;;;;;;17.10;5.60;;;;;;;-3.54;100.00;101369.21;105274;1257;78170;-58
2023/01/13 06:59:37;;;;;;;11.30;4.90;;;;;;;-3.55;100.00;101373.00;105433;1257;67877;-59
2023/01/13 07:02:04;;;;;;;17.80;5.70;;;;;;;-3.55;100.00;101371.96;105843;1258;74170;-58
2023/01/13 07:04:31;;;;;;;12.00;5.60;;;;;;;-3.56;100.00;101369.95;105593;1257;62506;-59
2023/01/13 07:06:58;;;;;;;13.10;6.20;;;;;;;-3.55;100.00;101364.14;105157;1260;61610;-58
2023/01/13 07:09:26;;;;;;;16.30;5.90;;;;;;;-3.52;100.00;101362.48;105449;1257;74825;-63
2023/01/13 07:11:53;;;;;;;13.70;5.70;;;;;;;-3.50;100.00;101358.31;105387;1260;68852;-63
2023/01/13 07:17:05;;;;;;;14.30;5.60;;;;;;;-3.49;100.00;101363.86;104984;1257;60713;-63
2023/01/13 07:19:32;;;;;;;17.00;5.40;;;;;;;-3.46;100.00;101363.77;105033;1256;61709;-63
2023/01/13 07:22:00;;;;;;;16.70;6.10;;;;;;;-3.45;100.00;101360.65;104978;1256;75230;-65
2023/01/13 07:24:27;;;;;;;12.20;4.90;;;;;;;-3.43;100.00;101361.27;104807;1257;69797;-62
2023/01/13 07:26:54;;;;;;;15.90;5.50;;;;;;;-3.42;100.00;101365.10;105222;1256;75467;-62
2023/01/13 07:29:21;;;;;;;15.30;5.30;;;;;;;-3.42;100.00;101363.04;105206;1257;63587;-67
2023/01/13 07:31:48;;;;;;;18.00;4.50;;;;;;;-3.38;100.00;101361.05;104881;1257;63114;-64
2023/01/13 07:34:16;;;;;;;14.60;4.60;;;;;;;-3.35;100.00;101362.77;105118;1260;76340;-63
2023/01/13 07:36:43;;;;;;;9.70;4.30;;;;;;;-3.33;100.00;101367.11;105240;1262;69567;-67
2023/01/13 07:39:10;;;;;;;14.20;5.70;;;;;;;-3.31;100.00;101366.68;104989;1257;74271;-66
2023/01/13 07:44:26;;;;;;;13.50;5.40;;;;;;;-3.29;100.00;101369.64;105319;1257;63141;-66
2023/01/13 07:46:53;;;;;;;14.70;6.00;;;;;;;-3.24;100.00;101373.33;104759;1260;76344;-62
2023/01/13 07:49:20;;;;;;;18.80;5.60;;;;;;;-3.19;100.00;101376.36;105146;1260;68235;-61
2023/01/13 07:51:47;;;;;;;13.20;5.30;;;;;;;-3.16;100.00;101376.73;104958;1257;74118;-68
2023/01/13 07:54:14;;;;;;;19.50;5.90;;;;;;;-3.12;100.00;101377.91;105009;1257;61127;-62
2023/01/13 07:56:41;;;;;;;15.60;4.70;;;;;;;-3.13;100.00;101378.65;105317;1262;62015;-65
2023/01/13 07:59:08;;;;;;;17.30;5.70;;;;;;;-3.15;100.00;101383.00;105427;1257;76525;-63
2023/01/13 08:01:36;;;;;;;13.30;5.30;;;;;;;-3.17;100.00;101380.20;105139;1259;69762;-63
2023/01/13 08:04:03;;;;;;;12.00;4.50;;;;;;;-3.18;100.00;101381.93;105471;1258;74259;-65
2023/01/13 08:06:31;;;;;;;17.30;5.60;;;;;;;-3.20;100.00;101382.00;105136;1257;60971;-62
2023/01/13 08:08:58;;;;;;;22.60;5.30;;;;;;;-3.19;100.00;101377.55;105436;1259;61491;-63
2023/01/13 08:11:25;;;;;;;21.20;5.50;;;;;;;-3.15;100.00;101379.08;105514;1256;76384;-67
2023/01/13 08:13:56;;;;;;;19.20;6.10;;;;;;;-3.13;100.00;101375.44;105458;1260;68832;-63
2023/01/13 08:16:23;;;;;;;;;;;;;;;-3.12;100.00;101376.73;105409;1257;74380;-63
2023/01/13 08:18:50;;;;;;;15.00;5.80;;;;;;;-3.13;100.00;101375.08;105443;1259;62506;-66
2023/01/13 08:21:18;;;;;;;16.60;5.30;;;;;;;-3.13;100.00;101374.41;104857;1257;370474;-65
2023/01/13 08:23:45;;;;;;;14.80;5.50;;;;;;;-3.12;100.00;101373.02;105119;1259;76362;-63
2023/01/13 08:26:14;;;;;;;15.60;5.40;;;;;;;-3.13;100.00;101370.13;105305;1259;68218;-67
2023/01/13 08:28:41;;;;;;;14.80;4.90;;;;;;;-3.14;100.00;101367.48;105213;1259;74042;-66
2023/01/13 08:31:13;;;;;;;22.90;5.60;;;;;;;-3.13;100.00;101369.33;104832;1261;63983;-65
2023/01/13 08:33:40;;;;;;;16.00;5.90;;;;;;;-3.09;100.00;101369.64;105468;1260;61733;-66
2023/01/13 08:36:09;;;;;;;19.30;6.50;;;;;;;-3.06;100.00;101366.95;105371;1259;76141;-62
2023/01/13 08:38:36;;;;;;;16.80;5.70;;;;;;;-3.04;100.00;101368.86;104867;1260;67369;-65
2023/01/13 08:41:11;;;;;;;13.30;5.00;;;;;;;-3.06;100.00;101369.16;104932;1262;75119;-61
2023/01/13 08:43:38;;;;;;;18.00;5.10;;;;;;;-3.11;100.00;101370.59;105062;1259;62819;-61
2023/01/13 08:46:05;;;;;;;19.20;6.10;;;;;;;-3.15;100.00;101364.63;105139;1260;61694;-66
2023/01/13 08:48:33;;;;;;;21.90;6.60;;;;;;;-3.16;100.00;101366.04;105368;1256;75243;-65
2023/01/13 08:51:01;;;;;;;25.70;6.60;;;;;;;-3.15;100.00;101362.42;104962;1257;69886;-61
2023/01/13 08:53:28;;;;;;;18.20;7.10;;;;;;;-3.12;100.00;101360.75;105176;1257;74850;-61
2023/01/13 08:55:56;;;;;;;16.70;6.20;;;;;;;-3.07;100.00;101356.46;105064;1257;63749;-67
2023/01/13 08:58:23;;;;;;;25.40;10.30;;;;;;;-3.04;100.00;101353.56;105033;1256;63021;-63
2023/01/13 09:00:50;;;;;;;21.70;9.10;;;;;;;-2.99;100.00;101351.00;105288;1257;75409;-66
2023/01/13 09:03:17;;;;;;;32.50;11.60;;;;;;;-2.97;100.00;101347.47;105055;1257;69497;-63
2023/01/13 09:05:44;;;;;;;30.00;11.00;;;;;;;-2.94;100.00;101348.87;104913;1261;73880;-64
2023/01/13 09:08:11;;;;;;;23.40;10.20;;;;;;;-2.90;100.00;101350.76;105391;1258;61026;-66
2023/01/13 09:10:39;;;;;;;24.00;7.30;;;;;;;-2.90;100.00;101346.17;105055;1260;60748;-63
2023/01/13 09:13:10;;;;;;;14.30;6.00;;;;;;;-2.90;100.00;101341.39;105125;1256;76091;-64
2023/01/13 09:15:39;;;;;;;13.80;6.10;;;;;;;-2.90;100.00;101338.86;104976;1260;68298;-63
2023/01/13 09:18:06;;;;;;;16.60;4.90;;;;;;;-2.90;100.00;101337.30;105192;1257;75612;-62
2023/01/13 09:20:33;;;;;;;18.80;6.70;;;;;;;-2.90;100.00;101337.46;105070;1261;61716;-63
2023/01/13 09:23:00;;;;;;;20.40;5.90;;;;;;;-2.89;100.00;101340.14;105169;1260;61440;-64
2023/01/13 09:25:27;;;;;;;21.00;6.70;;;;;;;-2.89;100.00;101334.53;104914;1260;76013;-62
2023/01/13 09:27:55;;;;;;;16.70;6.00;;;;;;;-2.87;100.00;101332.25;105170;1257;69054;-63
2023/01/13 09:30:23;;;;;;;20.40;7.50;;;;;;;-2.81;100.00;101329.77;105168;1257;74208;-62
2023/01/13 09:34:58;;;;;;;18.20;7.20;;;;;;;-2.76;100.00;101326.61;104946;1257;61842;-65
2023/01/13 09:35:37;;;;;;;18.00;6.50;;;;;;;-2.72;100.00;101327.14;105104;1256;61752;-62
2023/01/13 09:38:05;;;;;;;19.10;6.50;;;;;;;-2.69;100.00;101326.11;104950;1256;76380;-62
2023/01/13 09:40:32;;;;;;;17.30;6.40;;;;;;;-2.66;100.00;101324.99;104726;1261;68552;-64
2023/01/13 09:49:19;;;;;;;19.60;6.30;;;;;;;-2.54;100.00;101313.70;105091;1257;62257;-62
2023/01/13 09:51:52;;;;;;;19.50;7.20;;;;;;;-2.54;100.00;101315.41;105318;1257;75135;-62
2023/01/13 09:54:32;;;;;;;18.00;6.10;;;;;;;-2.59;100.00;101314.60;105172;1259;69588;-62
2023/01/13 09:56:59;;;;;;;17.70;6.90;;;;;;;-2.58;100.00;101314.40;104757;1261;75036;-66
2023/01/13 09:59:31;;;;;;;20.10;6.80;;;;;;;-2.53;100.00;101311.62;104634;1262;61553;-65
2023/01/13 10:02:02;;;;;;;22.50;7.30;;;;;;;-2.53;100.00;101303.26;105118;1257;62508;-61
2023/01/13 10:04:29;;;;;;;22.00;7.80;;;;;;;-2.51;100.00;101302.63;105181;1257;74163;-61
2023/01/13 10:06:59;;;;;;;17.90;6.70;;;;;;;-2.49;100.00;101306.46;105146;1256;69587;-62
2023/01/13 10:09:32;;;;;;;18.50;7.00;;;;;;;-2.47;100.00;101295.63;104937;1261;74213;-66
2023/01/13 10:14:52;;;;;;;22.70;7.80;;;;;;;-2.43;100.00;101294.11;105458;1256;61855;-67
2023/01/13 10:17:31;;;;;;;20.30;6.30;;;;;;;-2.45;100.00;101285.31;105252;1258;76308;-64
2023/01/13 10:20:07;;;;;;;22.30;6.40;;;;;;;-2.40;100.00;101292.43;105248;1257;69633;-61
2023/01/13 10:23:13;;;;;;;16.40;6.10;;;;;;;-2.38;100.00;101294.70;105369;1257;75072;-66
2023/01/13 10:26:08;;;;;;;16.40;5.50;;;;;;;-2.36;100.00;101293.39;104619;1268;61900;-62
2023/01/13 10:28:36;;;;;;;17.70;6.10;;;;;;;-2.36;100.00;101297.30;105017;1255;63141;-62
2023/01/13 10:31:09;;;;;;;21.90;6.20;;;;;;;-2.35;100.00;101292.70;105018;1257;75275;-62
2023/01/13 10:33:36;;;;;;;22.20;5.50;;;;;;;-2.36;100.00;101291.71;104814;1264;69383;-66
2023/01/13 10:36:16;;;;;;;20.10;6.20;;;;;;;-2.38;100.00;101291.84;104960;1259;75629;-62
2023/01/13 10:38:45;;;;;;;13.80;6.00;;;;;;;-2.39;100.00;101286.92;104818;1262;63746;-61
2023/01/13 10:41:15;;;;;;;14.20;5.20;;;;;;;-2.40;100.00;101285.77;104925;1262;62125;-62
2023/01/13 10:44:01;;;;;;;14.50;5.90;;;;;;;-2.38;100.00;101286.17;105228;1257;75283;-62
2023/01/13 10:46:28;;;;;;;24.90;6.80;;;;;;;-2.35;100.00;101284.36;104903;1257;70305;-62
2023/01/13 10:48:57;;;;;;;13.50;5.50;;;;;;;-2.35;100.00;101280.76;104980;1257;74783;-62
2023/01/13 10:51:29;;;;;;;23.80;10.30;;;;;;;-2.33;100.00;101284.42;105045;1259;63719;-63
2023/01/13 10:54:00;;;;;;;23.70;11.20;;;;;;;-2.33;100.00;101278.98;104969;1257;61444;-67
2023/01/13 10:56:31;;;;;;;24.20;8.90;;;;;;;-2.29;100.00;101284.23;104793;1262;76987;-62
2023/01/13 10:59:08;;;;;;;;;;;;;;;-2.32;100.00;101278.22;104947;1261;69617;-67
2023/01/13 11:01:35;;;;;;;14.40;5.60;;;;;;;-2.35;100.00;101274.98;105297;1256;74147;-61
2023/01/13 11:04:33;;;;;;;20.90;7.60;;;;;;;-2.37;100.00;101270.67;105545;1262;63762;-68
2023/01/13 11:07:02;;;;;;;26.50;10.70;;;;;;;-2.37;100.00;101273.23;105199;1261;61703;-61
2023/01/13 11:09:29;;;;;;;15.40;5.80;;;;;;;-2.38;100.00;101268.65;105407;1257;75469;-69
2023/01/13 11:11:57;;;;;;;18.80;6.30;;;;;;;-2.39;100.00;101263.77;105402;1259;69351;-61
2023/01/13 11:14:35;;;;;;;15.80;6.10;;;;;;;-2.41;100.00;101264.54;105227;1257;74067;-65
2023/01/13 11:17:08;;;;;;;19.30;7.80;;;;;;;-2.41;100.00;101264.73;105263;1257;60754;-64
2023/01/13 11:19:38;;;;;;;26.90;11.30;;;;;;;-2.40;100.00;101262.98;105566;1256;62746;-65
2023/01/13 11:22:09;;;;;;;23.50;10.10;;;;;;;-2.41;100.00;101262.86;105198;1256;76500;-63
2023/01/13 11:24:40;;;;;;;24.30;9.00;;;;;;;-2.41;100.00;101264.03;105224;1262;68581;-62
2023/01/13 11:27:16;;;;;;;18.70;5.70;;;;;;;-2.42;100.00;101261.05;105200;1261;75192;-62
2023/01/13 11:30:08;;;;;;;16.20;5.10;;;;;;;-2.45;100.00;101261.67;105188;1260;60552;-64
2023/01/13 11:32:40;;;;;;;20.90;7.90;;;;;;;-2.48;100.00;101262.98;105415;1256;62950;-63
2023/01/13 11:35:15;;;;;;;20.60;5.70;;;;;;;-2.49;100.00;101263.23;105583;1262;74921;-65
2023/01/13 11:37:44;;;;;;;25.40;5.90;;;;;;;-2.51;100.00;101260.61;105749;1256;69372;-66
2023/01/13 11:40:26;;;;;;;18.60;6.60;;;;;;;-2.53;100.00;101257.16;105415;1257;74275;-61
2023/01/13 11:43:09;;;;;;;25.50;7.20;;;;;;;-2.55;100.00;101263.34;105215;1258;62121;-65
2023/01/13 11:45:45;;;;;;;30.70;7.90;;;;;;;-2.57;100.00;101256.82;105006;1257;60570;-63
2023/01/13 11:48:19;;;;;;;16.90;7.30;;;;;;;-2.58;100.00;101251.75;105097;1257;74452;-61
2023/01/13 11:51:03;;;;;;;18.00;7.50;;;;;;;-2.53;100.00;101257.67;104721;1256;70140;-65
2023/01/13 11:53:51;;;;;;;26.00;9.10;;;;;;;-2.55;100.00;101260.80;104876;1260;74294;-62
2023/01/13 11:56:49;;;;;;;23.70;10.10;;;;;;;-2.59;100.00;101263.40;105009;1262;62534;-63
2023/01/13 11:59:50;;;;;;;30.70;10.50;;;;;;;-2.63;100.00;101256.92;105023;1257;61477;-61
2023/01/13 12:02:24;;;;;;;26.20;14.30;;;;;;;-2.64;100.00;101260.71;104799;1258;76917;-62
2023/01/13 12:05:27;;;;;;;36.50;19.30;;;;;;;-2.66;100.00;101257.75;105267;1257;69518;-60
2023/01/13 12:08:21;;;;;;;19.40;7.20;;;;;;;-2.67;100.00;101266.81;105059;1257;73904;-61
2023/01/13 12:10:52;;;;;;;21.00;5.80;;;;;;;-2.71;100.00;101264.98;105030;1261;64048;-62